createdAt,value
2023-02-19T00:01:17.944Z,28.60
2023-02-19T00:03:49.780Z,24.58
2023-02-19T00:06:16.640Z,40.15
2023-02-19T00:08:43.457Z,25.33
2023-02-19T00:11:18.204Z,27.10
2023-02-19T00:13:47.504Z,28.73
2023-02-19T00:16:16.500Z,23.20
2023-02-19T00:18:44.191Z,21.02
2023-02-19T00:21:11.627Z,39.97
2023-02-19T00:23:38.701Z,40.22
2023-02-19T00:26:17.660Z,21.75
2023-02-19T00:28:47.862Z,25.35
2023-02-19T00:31:18.947Z,32.20
2023-02-19T00:33:46.857Z,23.25
2023-02-19T00:36:14.299Z,27.13
2023-02-19T00:38:42.410Z,24.00
2023-02-19T00:41:22.152Z,28.38
2023-02-19T00:43:48.994Z,25.55
2023-02-19T00:46:22.128Z,24.55
2023-02-19T00:48:49.378Z,24.38
2023-02-19T00:51:16.451Z,29.55
2023-02-19T00:53:43.511Z,21.17
2023-02-19T00:56:11.289Z,20.02
2023-02-19T00:58:38.764Z,19.73
2023-02-19T01:01:07.270Z,27.00
2023-02-19T01:03:35.652Z,19.58
2023-02-19T01:06:04.317Z,18.88
2023-02-19T01:08:32.206Z,17.08
2023-02-19T01:11:02.168Z,22.73
2023-02-19T01:13:29.691Z,25.10
2023-02-19T01:16:07.302Z,18.10
2023-02-19T01:18:34.063Z,16.35
2023-02-19T01:21:05.760Z,15.98
2023-02-19T01:23:32.855Z,23.95
2023-02-19T01:25:59.585Z,19.00
2023-02-19T01:28:26.338Z,22.38
2023-02-19T01:30:53.251Z,21.88
2023-02-19T01:33:20.003Z,30.83
2023-02-19T01:35:46.710Z,20.90
2023-02-19T01:38:13.693Z,19.85
2023-02-19T01:40:40.418Z,19.15
2023-02-19T01:43:16.099Z,19.50
2023-02-19T01:45:44.783Z,18.77
2023-02-19T01:48:29.188Z,26.70
2023-02-19T01:51:17.091Z,19.42
2023-02-19T01:53:48.100Z,18.52
2023-02-19T01:56:16.712Z,15.65
2023-02-19T01:58:44.107Z,22.50
2023-02-19T02:01:11.677Z,18.15
2023-02-19T02:03:40.890Z,16.55
2023-02-19T02:06:22.439Z,22.08
2023-02-19T02:09:10.519Z,12.77
2023-02-19T02:11:38.902Z,14.10
2023-02-19T02:14:05.755Z,11.57
2023-02-19T02:16:41.735Z,14.13
2023-02-19T02:19:29.666Z,11.63
2023-02-19T02:22:13.957Z,13.07
2023-02-19T02:25:17.878Z,10.88
2023-02-19T02:27:47.529Z,16.80
2023-02-19T02:30:18.149Z,12.27
2023-02-19T02:33:08.228Z,11.48
2023-02-19T02:35:58.599Z,9.00
2023-02-19T02:38:29.351Z,19.45
2023-02-19T02:40:57.046Z,14.82
2023-02-19T02:43:24.890Z,15.13
2023-02-19T02:45:52.136Z,10.40
2023-02-19T02:48:26.575Z,17.45
2023-02-19T02:51:04.632Z,12.30
2023-02-19T02:54:02.178Z,11.68
2023-02-19T02:56:29.384Z,13.20
2023-02-19T02:59:01.072Z,13.13
2023-02-19T03:01:52.084Z,12.98
2023-02-19T03:04:26.712Z,18.98
2023-02-19T03:06:54.752Z,14.25
2023-02-19T03:09:31.962Z,15.02
2023-02-19T03:12:21.758Z,11.20
2023-02-19T03:15:10.742Z,14.32
2023-02-19T03:18:19.401Z,18.00
2023-02-19T03:20:50.306Z,15.07
2023-02-19T03:23:18.522Z,11.38
2023-02-19T03:26:03.505Z,17.58
2023-02-19T03:28:59.599Z,11.55
2023-02-19T03:31:29.220Z,17.15
2023-02-19T03:34:02.203Z,17.85
2023-02-19T03:36:38.317Z,10.82
2023-02-19T03:39:07.535Z,13.00
2023-02-19T03:42:04.891Z,9.90
2023-02-19T03:44:35.566Z,10.80
2023-02-19T03:47:19.081Z,16.67
2023-02-19T03:49:55.963Z,15.75
2023-02-19T03:53:03.549Z,7.78
2023-02-19T03:55:39.457Z,12.52
2023-02-19T03:58:24.875Z,13.40
2023-02-19T04:00:57.416Z,10.30
2023-02-19T04:03:26.818Z,8.05
2023-02-19T04:06:00.876Z,12.95
2023-02-19T04:08:28.160Z,16.27
2023-02-19T04:11:00.689Z,11.55
2023-02-19T04:13:34.685Z,9.93
2023-02-19T04:16:07.126Z,7.80
2023-02-19T04:18:37.233Z,13.05
2023-02-19T04:21:04.770Z,7.57
2023-02-19T04:23:35.837Z,11.10
2023-02-19T04:26:03.361Z,8.73
2023-02-19T04:28:30.318Z,11.80
2023-02-19T04:30:57.062Z,9.68
2023-02-19T04:33:23.881Z,14.10
2023-02-19T04:35:50.604Z,8.48
2023-02-19T04:38:17.289Z,15.23
2023-02-19T04:40:44.132Z,11.63
2023-02-19T04:43:11.337Z,13.18
2023-02-19T04:45:38.791Z,15.55
2023-02-19T04:48:06.027Z,14.68
2023-02-19T04:50:32.701Z,11.20
2023-02-19T04:52:59.425Z,12.52
2023-02-19T04:55:26.331Z,12.07
2023-02-19T04:57:53.201Z,10.98
2023-02-19T05:00:20.059Z,16.27
2023-02-19T05:02:46.913Z,16.17
2023-02-19T05:05:13.740Z,16.10
2023-02-19T05:07:40.558Z,18.05
2023-02-19T05:10:07.702Z,15.65
2023-02-19T05:12:34.716Z,20.35
2023-02-19T05:15:01.553Z,11.68
2023-02-19T05:17:28.491Z,13.32
2023-02-19T05:19:55.214Z,15.77
2023-02-19T05:22:21.888Z,15.57
2023-02-19T05:24:48.961Z,23.88
2023-02-19T05:27:15.667Z,11.65
2023-02-19T05:29:42.399Z,14.68
2023-02-19T05:32:09.368Z,14.02
2023-02-19T05:34:36.079Z,15.63
2023-02-19T05:37:02.845Z,9.98
2023-02-19T05:39:29.726Z,11.98
2023-02-19T05:41:56.515Z,12.80
2023-02-19T05:44:23.325Z,9.88
2023-02-19T05:46:50.402Z,18.52
2023-02-19T05:49:17.365Z,19.13
2023-02-19T05:51:44.375Z,15.73
2023-02-19T05:54:11.209Z,18.98
2023-02-19T05:56:40.105Z,16.63
2023-02-19T05:59:21.426Z,13.43
2023-02-19T06:01:49.941Z,16.75
2023-02-19T06:04:19.134Z,24.48
2023-02-19T06:06:47.196Z,14.50
2023-02-19T06:09:14.086Z,20.35
2023-02-19T06:11:41.288Z,23.35
2023-02-19T06:14:08.176Z,20.42
2023-02-19T06:16:35.241Z,15.32
2023-02-19T06:19:03.426Z,18.35
2023-02-19T06:21:30.180Z,14.27
2023-02-19T06:23:56.989Z,19.17
2023-02-19T06:26:25.335Z,20.75
2023-02-19T06:28:54.073Z,21.85
2023-02-19T06:31:22.376Z,13.23
2023-02-19T06:33:50.732Z,22.52
2023-02-19T06:36:19.655Z,12.23
2023-02-19T06:38:46.447Z,13.55
2023-02-19T06:41:13.885Z,21.38
2023-02-19T06:43:41.091Z,18.63
2023-02-19T06:46:08.593Z,18.30
2023-02-19T06:48:35.853Z,12.85
2023-02-19T06:51:03.310Z,15.55
2023-02-19T06:53:30.390Z,15.48
2023-02-19T06:55:58.146Z,18.38
2023-02-19T06:58:25.245Z,15.57
2023-02-19T07:01:13.998Z,20.38
2023-02-19T07:03:43.635Z,12.88
2023-02-19T07:06:10.423Z,18.83
2023-02-19T07:08:37.074Z,13.90
2023-02-19T07:11:04.224Z,17.98
2023-02-19T07:13:31.055Z,19.95
2023-02-19T07:16:08.005Z,17.10
2023-02-19T07:18:35.050Z,17.15
2023-02-19T07:21:10.977Z,18.88
2023-02-19T07:23:38.376Z,20.60
2023-02-19T07:26:05.559Z,22.92
2023-02-19T07:28:32.285Z,24.73
2023-02-19T07:31:03.414Z,20.25
2023-02-19T07:33:30.860Z,17.27
2023-02-19T07:35:57.694Z,18.88
2023-02-19T07:38:25.239Z,16.98
2023-02-19T07:40:52.776Z,19.42
2023-02-19T07:43:19.638Z,17.98
2023-02-19T07:45:46.428Z,20.35
2023-02-19T07:48:13.424Z,21.23
2023-02-19T07:50:40.207Z,24.80
2023-02-19T07:53:06.790Z,16.63
2023-02-19T07:55:34.035Z,26.50
2023-02-19T07:58:01.107Z,20.25
2023-02-19T08:00:28.031Z,17.63
2023-02-19T08:03:00.770Z,22.67
2023-02-19T08:05:30.663Z,23.00
2023-02-19T08:07:58.837Z,25.45
2023-02-19T08:10:44.897Z,16.13
2023-02-19T08:13:19.606Z,19.42
2023-02-19T08:15:46.993Z,20.95
2023-02-19T08:18:14.724Z,20.42
2023-02-19T08:20:41.377Z,15.68
2023-02-19T08:23:08.991Z,18.30
2023-02-19T08:25:36.137Z,22.08
2023-02-19T08:28:02.982Z,17.42
2023-02-19T08:30:30.995Z,23.08
2023-02-19T08:33:01.312Z,19.80
2023-02-19T08:35:28.967Z,21.27
2023-02-19T08:37:57.441Z,22.50
2023-02-19T08:40:25.301Z,32.13
2023-02-19T08:42:52.176Z,24.67
2023-02-19T08:45:19.243Z,22.58
2023-02-19T08:47:46.705Z,19.63
2023-02-19T08:50:13.450Z,22.67
2023-02-19T08:52:42.582Z,31.42
2023-02-19T08:55:09.408Z,18.27
2023-02-19T08:57:37.732Z,20.58
2023-02-19T09:00:06.540Z,18.85
2023-02-19T09:02:33.538Z,29.20
2023-02-19T09:05:00.289Z,48.63
2023-02-19T09:07:27.648Z,28.00
2023-02-19T09:09:54.644Z,31.25
2023-02-19T09:12:21.466Z,25.48
2023-02-19T09:14:48.372Z,20.40
2023-02-19T09:17:15.007Z,20.08
2023-02-19T09:19:41.951Z,23.60
2023-02-19T09:22:09.283Z,24.30
2023-02-19T09:24:36.172Z,34.78
2023-02-19T09:27:02.835Z,34.08
2023-02-19T09:29:29.771Z,20.83
2023-02-19T09:32:00.463Z,13.50
2023-02-19T09:34:28.403Z,20.33
2023-02-19T09:36:55.664Z,18.15
2023-02-19T09:39:22.505Z,18.15
2023-02-19T09:41:52.284Z,11.70
2023-02-19T09:44:34.446Z,14.00
2023-02-19T09:47:02.222Z,10.00
2023-02-19T09:49:33.854Z,10.98
2023-02-19T09:52:12.440Z,13.95
2023-02-19T09:54:40.020Z,15.25
2023-02-19T09:57:14.706Z,11.40
2023-02-19T09:59:47.969Z,12.88
2023-02-19T10:02:18.762Z,14.57
2023-02-19T10:04:46.976Z,13.55
2023-02-19T10:07:26.114Z,9.73
2023-02-19T10:12:26.016Z,8.48
2023-02-19T10:14:56.497Z,9.18
2023-02-19T10:17:25.658Z,16.95
2023-02-19T10:19:52.985Z,9.32
2023-02-19T10:22:20.519Z,11.75
2023-02-19T10:24:51.835Z,13.82
2023-02-19T10:27:18.977Z,11.68
2023-02-19T10:29:47.412Z,14.95
2023-02-19T10:32:14.273Z,13.00
2023-02-19T10:34:40.963Z,13.90
2023-02-19T10:37:12.458Z,15.45
2023-02-19T10:39:43.257Z,11.65
2023-02-19T10:42:23.329Z,11.98
2023-02-19T10:44:54.359Z,6.60
2023-02-19T10:47:23.529Z,9.10
2023-02-19T10:49:51.379Z,7.82
2023-02-19T10:52:22.579Z,7.03
2023-02-19T10:54:56.711Z,5.68
2023-02-19T10:57:30.662Z,6.88
2023-02-19T11:00:19.786Z,4.53
2023-02-19T11:02:47.105Z,4.72
2023-02-19T11:05:23.465Z,5.90
2023-02-19T11:07:53.791Z,4.78
2023-02-19T11:10:29.036Z,5.65
2023-02-19T11:12:59.633Z,4.45
2023-02-19T11:15:33.625Z,5.28
2023-02-19T11:18:12.961Z,3.72
2023-02-19T11:20:48.918Z,5.05
2023-02-19T11:23:20.089Z,5.72
2023-02-19T11:25:51.276Z,6.10
2023-02-19T11:28:37.972Z,7.40
2023-02-19T11:31:23.189Z,8.20
2023-02-19T11:36:30.900Z,7.28
2023-02-19T11:39:02.052Z,6.20
2023-02-19T11:52:10.096Z,5.32
2023-02-19T12:10:17.894Z,3.75
2023-02-19T12:13:06.595Z,3.58
2023-02-19T12:16:01.379Z,3.05
2023-02-19T12:18:40.355Z,2.72
2023-02-19T12:24:01.568Z,2.10
2023-02-19T12:29:28.341Z,5.15
2023-02-19T12:32:23.497Z,3.08
2023-02-19T12:35:12.696Z,3.38
2023-02-19T12:37:58.226Z,4.20
2023-02-19T12:40:43.426Z,3.72
2023-02-19T12:43:20.642Z,4.95
2023-02-19T12:46:13.910Z,5.75
2023-02-19T12:48:48.356Z,5.93
2023-02-19T12:51:23.511Z,6.63
2023-02-19T12:53:56.331Z,6.45
2023-02-19T12:56:37.135Z,5.93
2023-02-19T13:29:29.938Z,20.60
2023-02-19T14:15:44.599Z,4.72
2023-02-19T14:18:42.746Z,5.47
2023-02-19T14:21:28.055Z,5.78
2023-02-19T14:23:58.400Z,6.72
2023-02-19T14:26:26.689Z,5.57
2023-02-19T14:28:53.996Z,6.38
2023-02-19T14:31:29.277Z,7.03
2023-02-19T14:34:00.525Z,6.90
2023-02-19T14:36:30.074Z,10.68
2023-02-19T14:38:59.206Z,5.70
2023-02-19T14:41:27.234Z,5.13
2023-02-19T14:43:56.950Z,11.25
2023-02-19T14:46:32.183Z,24.13
2023-02-19T14:49:05.553Z,29.10
2023-02-19T14:51:40.813Z,51.40
2023-02-19T14:54:15.787Z,12.02
2023-02-19T14:56:45.407Z,8.68
2023-02-19T14:59:11.967Z,17.92
2023-02-19T15:01:39.077Z,8.60
2023-02-19T15:04:06.521Z,9.50
2023-02-19T15:06:35.180Z,8.27
2023-02-19T15:09:07.100Z,5.28
2023-02-19T15:11:35.318Z,17.20
2023-02-19T15:14:04.549Z,9.02
2023-02-19T15:16:32.712Z,11.15
2023-02-19T15:19:00.219Z,7.85
2023-02-19T15:21:32.279Z,7.85
2023-02-19T15:24:04.332Z,19.67
2023-02-19T15:26:42.299Z,15.32
2023-02-19T15:29:17.065Z,15.40
2023-02-19T15:31:52.322Z,15.93
2023-02-19T15:34:20.516Z,15.13
2023-02-19T15:36:48.256Z,27.20
2023-02-19T15:39:26.208Z,6.15
2023-02-19T15:42:14.336Z,15.65
2023-02-19T15:45:18.766Z,5.43
2023-02-19T15:47:53.912Z,9.27
2023-02-19T15:50:31.952Z,16.27
2023-02-19T15:52:59.601Z,13.23
2023-02-19T15:55:51.977Z,15.48
2023-02-19T15:58:56.412Z,13.68
2023-02-19T16:01:31.118Z,10.43
2023-02-19T16:03:58.499Z,11.48
2023-02-19T16:06:26.517Z,10.93
2023-02-19T16:09:02.381Z,9.15
2023-02-19T16:11:53.201Z,8.63
2023-02-19T16:14:30.663Z,14.40
2023-02-19T16:17:11.449Z,8.85
2023-02-19T16:19:47.996Z,18.27
2023-02-19T16:22:18.588Z,29.65
2023-02-19T16:24:47.561Z,9.90
2023-02-19T16:27:26.097Z,15.63
2023-02-19T16:29:53.260Z,26.10
2023-02-19T16:32:20.090Z,16.95
2023-02-19T16:34:48.440Z,9.15
2023-02-19T16:37:35.134Z,24.85
2023-02-19T16:40:11.234Z,64.22
2023-02-19T16:42:50.656Z,25.08
2023-02-19T16:45:18.012Z,23.90
2023-02-19T16:47:48.205Z,92.25
2023-02-19T16:50:47.670Z,67.20
2023-02-19T16:53:24.801Z,131.68
2023-02-19T16:55:52.129Z,68.75
2023-02-19T16:58:18.827Z,50.25
2023-02-19T17:00:45.587Z,24.88
2023-02-19T17:03:15.360Z,38.50
2023-02-19T17:05:42.533Z,7.18
2023-02-19T17:08:46.318Z,7.60
2023-02-19T17:11:15.475Z,4.55
2023-02-19T17:13:42.931Z,13.57
2023-02-19T17:16:17.407Z,17.92
2023-02-19T17:18:44.195Z,17.58
2023-02-19T17:21:15.956Z,18.35
2023-02-19T17:23:42.759Z,19.38
2023-02-19T17:26:21.690Z,40.25
2023-02-19T17:28:48.883Z,17.02
2023-02-19T17:31:16.258Z,38.78
2023-02-19T17:33:43.711Z,21.05
2023-02-19T17:36:38.135Z,31.35
2023-02-19T17:39:07.147Z,40.92
2023-02-19T17:41:33.801Z,27.80
2023-02-19T17:44:00.550Z,29.27
2023-02-19T17:46:27.752Z,26.10
2023-02-19T17:48:55.206Z,16.17
2023-02-19T17:51:22.388Z,28.42
2023-02-19T17:53:49.353Z,14.65
2023-02-19T17:56:20.746Z,18.70
2023-02-19T17:58:47.766Z,14.07
2023-02-19T18:01:15.131Z,9.10
2023-02-19T18:03:42.910Z,12.88
2023-02-19T18:06:09.734Z,15.63
2023-02-19T18:08:36.893Z,9.27
2023-02-19T18:11:03.899Z,5.03
2023-02-19T18:13:30.689Z,6.72
2023-02-19T18:15:57.526Z,7.50
2023-02-19T18:18:24.154Z,9.15
2023-02-19T18:20:50.956Z,30.75
2023-02-19T18:23:17.705Z,14.57
2023-02-19T18:26:19.036Z,22.65
2023-02-19T18:28:45.854Z,12.98
2023-02-19T18:31:12.730Z,33.42
2023-02-19T18:33:39.696Z,18.15
2023-02-19T18:36:10.565Z,15.52
2023-02-19T18:38:37.423Z,12.27
2023-02-19T18:41:04.268Z,10.82
2023-02-19T18:43:31.211Z,10.18
2023-02-19T18:45:58.027Z,9.25
2023-02-19T18:48:24.858Z,6.10
2023-02-19T18:50:51.663Z,6.05
2023-02-19T18:53:18.448Z,5.35
2023-02-19T18:55:45.279Z,7.78
2023-02-19T18:58:12.051Z,5.32
2023-02-19T19:00:38.736Z,7.50
2023-02-19T19:03:06.510Z,6.30
2023-02-19T19:05:33.450Z,2.55
2023-02-19T19:08:01.847Z,2.47
2023-02-19T19:10:29.923Z,4.07
2023-02-19T19:12:57.594Z,3.55
2023-02-19T19:15:24.747Z,3.75
2023-02-19T19:17:52.295Z,5.18
2023-02-19T19:20:20.527Z,7.80
2023-02-19T19:22:51.711Z,5.53
2023-02-19T19:25:19.499Z,6.18
2023-02-19T19:27:46.887Z,3.15
2023-02-19T19:30:14.367Z,4.65
2023-02-19T19:32:41.965Z,2.88
2023-02-19T19:35:09.556Z,4.82
2023-02-19T19:37:36.298Z,4.22
2023-02-19T19:40:04.061Z,3.25
2023-02-19T19:42:30.834Z,5.13
2023-02-19T19:44:58.127Z,10.77
2023-02-19T19:47:25.406Z,4.47
2023-02-19T19:49:52.453Z,7.13
2023-02-19T19:52:19.191Z,12.65
2023-02-19T19:54:45.830Z,8.30
2023-02-19T19:57:13.138Z,6.28
2023-02-19T19:59:39.844Z,5.72
2023-02-19T20:02:07.729Z,5.05
2023-02-19T20:04:34.448Z,5.13
2023-02-19T20:07:02.362Z,4.57
2023-02-19T20:09:29.564Z,6.75
2023-02-19T20:11:56.594Z,5.38
2023-02-19T20:14:24.770Z,7.07
2023-02-19T20:16:52.618Z,5.03
2023-02-19T20:19:20.231Z,3.65
2023-02-19T20:21:50.839Z,4.50
2023-02-19T20:24:24.362Z,6.93
2023-02-19T20:26:53.396Z,4.95
2023-02-19T20:29:20.378Z,7.78
2023-02-19T20:31:50.883Z,5.57
2023-02-19T20:34:18.542Z,4.85
2023-02-19T20:36:46.806Z,6.25
2023-02-19T20:39:16.420Z,5.65
2023-02-19T20:41:48.837Z,5.60
2023-02-19T20:44:19.454Z,7.88
2023-02-19T20:46:48.940Z,10.48
2023-02-19T20:49:17.598Z,8.18
2023-02-19T20:51:50.232Z,12.32
2023-02-19T20:54:20.780Z,17.17
2023-02-19T20:56:54.177Z,12.23
2023-02-19T20:59:24.337Z,18.98
2023-02-19T21:01:51.864Z,16.90
2023-02-19T21:04:19.118Z,21.77
2023-02-19T21:06:46.100Z,15.52
2023-02-19T21:09:13.029Z,22.65
2023-02-19T21:11:39.813Z,19.25
2023-02-19T21:14:06.775Z,18.48
2023-02-19T21:16:33.766Z,18.65
2023-02-19T21:19:00.909Z,21.95
2023-02-19T21:21:30.028Z,18.58
2023-02-19T21:23:58.136Z,19.65
2023-02-19T21:26:25.699Z,16.55
2023-02-19T21:28:52.672Z,16.00
2023-02-19T21:31:21.664Z,14.60
2023-02-19T21:33:49.375Z,16.85
2023-02-19T21:36:18.491Z,15.20
2023-02-19T21:38:45.256Z,19.90
2023-02-19T21:41:12.000Z,19.30
2023-02-19T21:43:39.939Z,13.93
2023-02-19T21:46:06.711Z,16.48
2023-02-19T21:48:33.706Z,12.75
2023-02-19T21:51:00.911Z,12.65
2023-02-19T21:53:27.779Z,15.88
2023-02-19T21:55:58.808Z,13.35
2023-02-19T21:58:26.405Z,18.85
2023-02-19T22:00:58.731Z,11.25
2023-02-19T22:03:26.667Z,12.57
2023-02-19T22:05:57.770Z,10.23
2023-02-19T22:08:26.512Z,11.57
2023-02-19T22:11:04.932Z,10.10
2023-02-19T22:13:32.272Z,13.70
2023-02-19T22:16:00.399Z,11.10
2023-02-19T22:18:27.583Z,13.35
2023-02-19T22:20:54.288Z,9.60
2023-02-19T22:23:21.062Z,10.70
2023-02-19T22:25:47.665Z,14.45
2023-02-19T22:28:14.370Z,10.77
2023-02-19T22:30:42.819Z,12.60
2023-02-19T22:33:09.923Z,11.45
2023-02-19T22:35:36.776Z,11.35
2023-02-19T22:38:03.536Z,11.93
2023-02-19T22:40:30.233Z,11.38
2023-02-19T22:42:56.930Z,14.82
2023-02-19T22:45:25.137Z,9.23
2023-02-19T22:47:55.538Z,10.98
2023-02-19T22:50:22.873Z,9.70
2023-02-19T22:52:50.257Z,11.57
2023-02-19T22:55:17.311Z,11.77
2023-02-19T22:57:43.949Z,12.00
2023-02-19T23:00:17.463Z,13.73
2023-02-19T23:02:44.224Z,10.52
2023-02-19T23:05:10.794Z,10.88
2023-02-19T23:07:37.512Z,12.20
2023-02-19T23:10:04.371Z,9.85
2023-02-19T23:12:31.052Z,10.05
2023-02-19T23:14:57.774Z,15.93
2023-02-19T23:17:24.438Z,11.50
2023-02-19T23:19:51.077Z,14.73
2023-02-19T23:22:17.944Z,15.55
2023-02-19T23:24:44.719Z,15.40
2023-02-19T23:27:11.333Z,14.30
2023-02-19T23:29:38.119Z,14.80
2023-02-19T23:32:04.941Z,11.85
2023-02-19T23:34:31.937Z,14.35
2023-02-19T23:37:02.362Z,14.50
2023-02-19T23:39:29.220Z,17.73
2023-02-19T23:41:57.317Z,17.23
2023-02-19T23:44:25.269Z,14.60
2023-02-19T23:46:52.462Z,13.68
2023-02-19T23:49:19.389Z,15.25
2023-02-19T23:51:46.418Z,17.20
2023-02-19T23:54:13.131Z,17.63
2023-02-19T23:56:39.875Z,13.77
2023-02-19T23:59:06.638Z,15.60
